createdAt,value
2023-09-05T00:01:11.078Z,19.05
2023-09-05T00:11:11.265Z,18.50
2023-09-05T00:21:11.294Z,18.76
2023-09-05T00:31:11.597Z,18.58
2023-09-05T00:41:11.663Z,18.84
2023-09-05T00:51:11.903Z,18.40
2023-09-05T01:01:12.376Z,18.42
2023-09-05T01:11:12.219Z,18.43
2023-09-05T01:21:12.258Z,18.95
2023-09-05T01:31:12.567Z,19.15
2023-09-05T01:41:12.641Z,18.72
2023-09-05T01:51:12.933Z,18.82
2023-09-05T02:01:13.133Z,18.72
2023-09-05T02:11:13.317Z,18.62
2023-09-05T02:21:13.432Z,18.24
2023-09-05T02:31:13.646Z,18.62
2023-09-05T02:41:13.605Z,18.46
2023-09-05T02:51:14.073Z,18.24
2023-09-05T03:01:14.270Z,17.97
2023-09-05T03:11:14.240Z,18.18
2023-09-05T03:21:14.501Z,18.22
2023-09-05T03:31:14.562Z,17.94
2023-09-05T03:41:14.738Z,18.04
2023-09-05T03:51:14.905Z,17.91
2023-09-05T04:01:15.086Z,18.12
2023-09-05T04:11:15.374Z,17.94
2023-09-05T04:21:15.320Z,18.09
2023-09-05T04:31:15.779Z,17.51
2023-09-05T04:41:15.791Z,17.29
2023-09-05T04:51:15.891Z,17.64
2023-09-05T05:01:16.099Z,17.79
2023-09-05T05:11:16.144Z,17.88
2023-09-05T05:21:16.176Z,18.04
2023-09-05T05:31:16.730Z,18.31
2023-09-05T05:41:16.544Z,18.22
2023-09-05T05:51:16.988Z,18.29
2023-09-05T06:01:16.819Z,18.70
2023-09-05T06:11:17.090Z,18.55
2023-09-05T06:21:17.353Z,18.61
2023-09-05T06:31:17.562Z,18.83
2023-09-05T06:41:21.567Z,19.05
2023-09-05T06:51:18.033Z,19.21
2023-09-05T07:01:18.219Z,19.32
2023-09-05T07:11:18.235Z,19.58
2023-09-05T07:21:18.094Z,19.90
2023-09-05T07:31:18.536Z,20.08
2023-09-05T07:41:18.662Z,20.51
2023-09-05T07:51:18.759Z,20.50
2023-09-05T08:01:18.797Z,20.81
2023-09-05T08:11:18.976Z,20.95
2023-09-05T08:21:19.150Z,21.27
2023-09-05T08:31:19.615Z,21.85
2023-09-05T08:41:19.418Z,21.92
2023-09-05T08:51:19.791Z,22.34
2023-09-05T09:01:19.992Z,23.20
2023-09-05T09:11:20.190Z,27.19
2023-09-05T09:21:23.797Z,28.66
2023-09-05T09:31:20.569Z,28.43
2023-09-05T09:41:20.573Z,25.32
2023-09-05T09:51:21.159Z,24.80
2023-09-05T10:01:21.037Z,24.50
2023-09-05T10:11:21.391Z,25.02
2023-09-05T10:21:21.182Z,26.22
2023-09-05T10:31:21.573Z,26.52
2023-09-05T10:41:23.791Z,27.71
2023-09-05T10:51:21.910Z,27.66
2023-09-05T11:01:22.082Z,26.40
2023-09-05T11:11:22.148Z,26.67
2023-09-05T11:21:22.191Z,26.72
2023-09-05T11:31:22.861Z,27.14
2023-09-05T11:41:22.528Z,27.06
2023-09-05T11:51:22.829Z,27.24
2023-09-05T12:01:23.148Z,27.61
2023-09-05T12:11:23.035Z,27.94
2023-09-05T12:21:23.177Z,27.99
2023-09-05T12:31:23.834Z,28.28
2023-09-05T12:41:23.617Z,28.72
2023-09-05T12:51:24.012Z,29.06
2023-09-05T13:01:23.890Z,29.41
2023-09-05T13:11:24.092Z,29.15
2023-09-05T13:21:24.408Z,29.56
2023-09-05T13:31:24.472Z,29.55
2023-09-05T13:41:24.660Z,30.18
2023-09-05T13:51:24.818Z,30.16
2023-09-05T14:01:24.941Z,30.75
2023-09-05T14:11:24.931Z,31.11
2023-09-05T14:21:25.184Z,30.86
2023-09-05T14:31:25.620Z,30.29
2023-09-05T14:41:25.407Z,30.02
2023-09-05T14:51:25.933Z,31.11
2023-09-05T15:01:25.811Z,31.68
2023-09-05T15:11:25.941Z,32.32
2023-09-05T15:21:26.260Z,31.46
2023-09-05T15:31:26.463Z,32.13
2023-09-05T15:41:26.460Z,32.39
2023-09-05T15:51:26.866Z,32.07
2023-09-05T16:01:27.066Z,31.48
2023-09-05T16:11:27.112Z,30.83
2023-09-05T16:21:27.304Z,30.23
2023-09-05T16:31:27.720Z,29.16
2023-09-05T16:41:27.348Z,27.76
2023-09-05T16:51:28.056Z,26.57
2023-09-05T17:01:28.122Z,25.98
2023-09-05T17:11:28.111Z,25.28
2023-09-05T17:21:28.353Z,24.71
2023-09-05T17:31:28.749Z,24.08
2023-09-05T17:41:28.462Z,23.77
2023-09-05T17:51:29.029Z,23.39
2023-09-05T18:01:28.835Z,22.67
2023-09-05T18:11:29.007Z,22.06
2023-09-05T18:21:29.071Z,21.97
2023-09-05T18:31:29.557Z,21.57
2023-09-05T18:41:29.626Z,20.96
2023-09-05T18:51:29.829Z,20.28
2023-09-05T19:01:29.914Z,20.13
2023-09-05T19:11:29.995Z,19.95
2023-09-05T19:21:30.140Z,19.83
2023-09-05T19:31:30.541Z,19.58
2023-09-05T19:41:30.676Z,19.01
2023-09-05T19:51:30.782Z,18.74
2023-09-05T20:01:30.980Z,18.76
2023-09-05T20:11:31.016Z,18.25
2023-09-05T20:21:31.225Z,18.34
2023-09-05T20:31:31.382Z,17.94
2023-09-05T20:41:31.440Z,17.95
2023-09-05T20:51:31.597Z,18.09
2023-09-05T21:01:31.747Z,18.77
2023-09-05T21:11:32.080Z,18.21
2023-09-05T21:21:31.928Z,18.28
2023-09-05T21:31:32.464Z,18.00
2023-09-05T21:41:32.159Z,18.07
2023-09-05T21:51:32.619Z,18.21
2023-09-05T22:01:34.438Z,18.39
2023-09-05T22:11:32.823Z,17.79
2023-09-05T22:21:33.019Z,17.15
2023-09-05T22:31:33.064Z,16.92
2023-09-05T22:41:33.225Z,16.92
2023-09-05T22:51:33.209Z,16.71
2023-09-05T23:01:33.518Z,17.04
2023-09-05T23:11:33.418Z,16.77
2023-09-05T23:21:33.769Z,16.41
2023-09-05T23:31:33.963Z,16.07
2023-09-05T23:41:33.976Z,16.59
2023-09-05T23:51:34.373Z,16.63
